sensor_id;sensor_type;location;lat;lon;timestamp;P1;durP1;ratioP1;P2;durP2;ratioP2
5961;SDS011;3007;50.770;0.250;2024-02-04T00:01:20;31.00;;;6.00;;
5961;SDS011;3007;50.770;0.250;2024-02-04T00:03:47;27.07;;;6.03;;
5961;SDS011;3007;50.770;0.250;2024-02-04T00:06:15;27.37;;;5.77;;
5961;SDS011;3007;50.770;0.250;2024-02-04T00:08:42;23.40;;;5.40;;
5961;SDS011;3007;50.770;0.250;2024-02-04T00:11:09;30.67;;;6.90;;
5961;SDS011;3007;50.770;0.250;2024-02-04T00:13:37;24.37;;;6.23;;
5961;SDS011;3007;50.770;0.250;2024-02-04T00:16:04;30.60;;;6.73;;
5961;SDS011;3007;50.770;0.250;2024-02-04T00:18:31;32.67;;;6.20;;
5961;SDS011;3007;50.770;0.250;2024-02-04T00:20:58;26.07;;;5.93;;
5961;SDS011;3007;50.770;0.250;2024-02-04T00:23:26;21.47;;;6.03;;
5961;SDS011;3007;50.770;0.250;2024-02-04T00:25:53;32.17;;;6.93;;
5961;SDS011;3007;50.770;0.250;2024-02-04T00:28:19;33.90;;;7.00;;
5961;SDS011;3007;50.770;0.250;2024-02-04T00:30:46;36.93;;;7.40;;
5961;SDS011;3007;50.770;0.250;2024-02-04T00:33:14;29.00;;;6.10;;
5961;SDS011;3007;50.770;0.250;2024-02-04T00:35:41;25.53;;;6.40;;
5961;SDS011;3007;50.770;0.250;2024-02-04T00:38:08;32.13;;;6.20;;
5961;SDS011;3007;50.770;0.250;2024-02-04T00:40:36;27.70;;;5.93;;
5961;SDS011;3007;50.770;0.250;2024-02-04T00:43:03;28.30;;;5.03;;
5961;SDS011;3007;50.770;0.250;2024-02-04T00:45:30;25.10;;;5.40;;
5961;SDS011;3007;50.770;0.250;2024-02-04T00:47:57;21.37;;;5.00;;
5961;SDS011;3007;50.770;0.250;2024-02-04T00:50:23;26.50;;;5.27;;
5961;SDS011;3007;50.770;0.250;2024-02-04T00:52:50;26.27;;;6.13;;
5961;SDS011;3007;50.770;0.250;2024-02-04T00:55:18;19.00;;;4.50;;
5961;SDS011;3007;50.770;0.250;2024-02-04T00:57:46;25.90;;;5.17;;
5961;SDS011;3007;50.770;0.250;2024-02-04T01:00:13;32.57;;;5.83;;
5961;SDS011;3007;50.770;0.250;2024-02-04T01:02:41;30.70;;;5.40;;
5961;SDS011;3007;50.770;0.250;2024-02-04T01:05:08;18.53;;;4.83;;
5961;SDS011;3007;50.770;0.250;2024-02-04T01:07:34;28.50;;;5.77;;
5961;SDS011;3007;50.770;0.250;2024-02-04T01:10:01;22.07;;;5.10;;
5961;SDS011;3007;50.770;0.250;2024-02-04T01:12:28;27.27;;;5.33;;
5961;SDS011;3007;50.770;0.250;2024-02-04T01:14:56;22.40;;;6.23;;
5961;SDS011;3007;50.770;0.250;2024-02-04T01:17:23;23.30;;;4.73;;
5961;SDS011;3007;50.770;0.250;2024-02-04T01:19:51;22.63;;;4.50;;
5961;SDS011;3007;50.770;0.250;2024-02-04T01:22:18;25.57;;;4.70;;
5961;SDS011;3007;50.770;0.250;2024-02-04T01:24:50;17.60;;;4.23;;
5961;SDS011;3007;50.770;0.250;2024-02-04T01:27:17;23.33;;;4.53;;
5961;SDS011;3007;50.770;0.250;2024-02-04T01:29:43;26.37;;;4.90;;
5961;SDS011;3007;50.770;0.250;2024-02-04T01:32:12;19.73;;;4.63;;
5961;SDS011;3007;50.770;0.250;2024-02-04T01:34:39;22.43;;;4.23;;
5961;SDS011;3007;50.770;0.250;2024-02-04T01:37:05;18.20;;;4.93;;
5961;SDS011;3007;50.770;0.250;2024-02-04T01:39:32;18.20;;;3.93;;
5961;SDS011;3007;50.770;0.250;2024-02-04T01:41:59;21.57;;;4.70;;
5961;SDS011;3007;50.770;0.250;2024-02-04T01:44:27;22.57;;;4.23;;
5961;SDS011;3007;50.770;0.250;2024-02-04T01:46:54;22.57;;;4.60;;
5961;SDS011;3007;50.770;0.250;2024-02-04T01:49:22;14.57;;;4.40;;
5961;SDS011;3007;50.770;0.250;2024-02-04T01:51:50;22.87;;;4.50;;
5961;SDS011;3007;50.770;0.250;2024-02-04T01:54:18;17.63;;;4.63;;
5961;SDS011;3007;50.770;0.250;2024-02-04T01:56:46;18.50;;;4.93;;
5961;SDS011;3007;50.770;0.250;2024-02-04T01:59:15;22.70;;;4.27;;
5961;SDS011;3007;50.770;0.250;2024-02-04T02:01:42;30.83;;;4.30;;
5961;SDS011;3007;50.770;0.250;2024-02-04T02:04:10;22.33;;;3.90;;
5961;SDS011;3007;50.770;0.250;2024-02-04T02:06:38;18.77;;;4.30;;
5961;SDS011;3007;50.770;0.250;2024-02-04T02:09:07;20.23;;;4.43;;
5961;SDS011;3007;50.770;0.250;2024-02-04T02:11:37;18.30;;;4.40;;
5961;SDS011;3007;50.770;0.250;2024-02-04T02:14:08;24.40;;;5.63;;
5961;SDS011;3007;50.770;0.250;2024-02-04T02:16:39;23.67;;;5.63;;
5961;SDS011;3007;50.770;0.250;2024-02-04T02:19:10;25.33;;;5.03;;
5961;SDS011;3007;50.770;0.250;2024-02-04T02:21:50;22.20;;;4.10;;
5961;SDS011;3007;50.770;0.250;2024-02-04T02:24:33;21.87;;;4.83;;
5961;SDS011;3007;50.770;0.250;2024-02-04T02:27:01;21.57;;;5.03;;
5961;SDS011;3007;50.770;0.250;2024-02-04T02:29:28;22.60;;;4.57;;
5961;SDS011;3007;50.770;0.250;2024-02-04T02:31:54;23.60;;;4.43;;
5961;SDS011;3007;50.770;0.250;2024-02-04T02:34:21;18.30;;;3.90;;
5961;SDS011;3007;50.770;0.250;2024-02-04T02:36:50;28.37;;;4.73;;
5961;SDS011;3007;50.770;0.250;2024-02-04T02:39:23;15.37;;;3.53;;
5961;SDS011;3007;50.770;0.250;2024-02-04T02:41:54;24.13;;;4.43;;
5961;SDS011;3007;50.770;0.250;2024-02-04T02:44:23;22.17;;;4.23;;
5961;SDS011;3007;50.770;0.250;2024-02-04T02:46:52;26.77;;;4.40;;
5961;SDS011;3007;50.770;0.250;2024-02-04T02:49:20;19.27;;;4.20;;
5961;SDS011;3007;50.770;0.250;2024-02-04T02:51:47;24.13;;;4.80;;
5961;SDS011;3007;50.770;0.250;2024-02-04T02:54:14;24.87;;;4.63;;
5961;SDS011;3007;50.770;0.250;2024-02-04T02:56:41;24.20;;;4.43;;
5961;SDS011;3007;50.770;0.250;2024-02-04T02:59:09;23.37;;;5.07;;
5961;SDS011;3007;50.770;0.250;2024-02-04T03:01:38;24.43;;;3.97;;
5961;SDS011;3007;50.770;0.250;2024-02-04T03:04:05;24.77;;;4.50;;
5961;SDS011;3007;50.770;0.250;2024-02-04T03:06:32;21.53;;;4.27;;
5961;SDS011;3007;50.770;0.250;2024-02-04T03:08:59;20.50;;;4.33;;
5961;SDS011;3007;50.770;0.250;2024-02-04T03:11:26;23.23;;;6.13;;
5961;SDS011;3007;50.770;0.250;2024-02-04T03:13:52;26.47;;;5.27;;
5961;SDS011;3007;50.770;0.250;2024-02-04T03:16:21;32.47;;;5.33;;
5961;SDS011;3007;50.770;0.250;2024-02-04T03:18:47;25.93;;;4.13;;
5961;SDS011;3007;50.770;0.250;2024-02-04T03:21:15;23.83;;;4.73;;
5961;SDS011;3007;50.770;0.250;2024-02-04T03:23:42;24.20;;;4.77;;
5961;SDS011;3007;50.770;0.250;2024-02-04T03:26:09;30.80;;;4.83;;
5961;SDS011;3007;50.770;0.250;2024-02-04T03:28:37;24.70;;;5.30;;
5961;SDS011;3007;50.770;0.250;2024-02-04T03:31:04;21.63;;;4.97;;
5961;SDS011;3007;50.770;0.250;2024-02-04T03:33:32;23.00;;;4.73;;
5961;SDS011;3007;50.770;0.250;2024-02-04T03:35:59;24.53;;;4.53;;
5961;SDS011;3007;50.770;0.250;2024-02-04T03:38:25;18.30;;;4.00;;
5961;SDS011;3007;50.770;0.250;2024-02-04T03:40:52;20.10;;;4.00;;
5961;SDS011;3007;50.770;0.250;2024-02-04T03:43:20;22.80;;;4.17;;
5961;SDS011;3007;50.770;0.250;2024-02-04T03:45:46;24.47;;;4.40;;
5961;SDS011;3007;50.770;0.250;2024-02-04T03:48:13;19.83;;;4.50;;
5961;SDS011;3007;50.770;0.250;2024-02-04T03:50:42;26.37;;;4.77;;
5961;SDS011;3007;50.770;0.250;2024-02-04T03:53:09;21.43;;;4.70;;
5961;SDS011;3007;50.770;0.250;2024-02-04T03:55:36;18.87;;;4.17;;
5961;SDS011;3007;50.770;0.250;2024-02-04T03:58:03;18.57;;;4.67;;
5961;SDS011;3007;50.770;0.250;2024-02-04T04:00:29;19.77;;;3.63;;
5961;SDS011;3007;50.770;0.250;2024-02-04T04:02:56;21.53;;;4.13;;
5961;SDS011;3007;50.770;0.250;2024-02-04T04:05:23;23.87;;;4.77;;
5961;SDS011;3007;50.770;0.250;2024-02-04T04:07:52;21.63;;;3.97;;
5961;SDS011;3007;50.770;0.250;2024-02-04T04:10:20;23.33;;;4.43;;
5961;SDS011;3007;50.770;0.250;2024-02-04T04:12:47;22.67;;;3.87;;
5961;SDS011;3007;50.770;0.250;2024-02-04T04:15:14;23.23;;;3.67;;
5961;SDS011;3007;50.770;0.250;2024-02-04T04:17:41;19.80;;;4.23;;
5961;SDS011;3007;50.770;0.250;2024-02-04T04:20:08;21.77;;;3.80;;
5961;SDS011;3007;50.770;0.250;2024-02-04T04:22:35;24.43;;;3.93;;
5961;SDS011;3007;50.770;0.250;2024-02-04T04:25:06;18.97;;;3.93;;
5961;SDS011;3007;50.770;0.250;2024-02-04T04:27:33;20.23;;;4.40;;
5961;SDS011;3007;50.770;0.250;2024-02-04T04:30:00;24.10;;;4.23;;
5961;SDS011;3007;50.770;0.250;2024-02-04T04:32:27;17.03;;;4.10;;
5961;SDS011;3007;50.770;0.250;2024-02-04T04:34:54;20.70;;;4.20;;
5961;SDS011;3007;50.770;0.250;2024-02-04T04:37:21;22.60;;;4.90;;
5961;SDS011;3007;50.770;0.250;2024-02-04T04:39:48;13.03;;;4.03;;
5961;SDS011;3007;50.770;0.250;2024-02-04T04:42:16;20.83;;;4.70;;
5961;SDS011;3007;50.770;0.250;2024-02-04T04:44:43;22.33;;;4.10;;
5961;SDS011;3007;50.770;0.250;2024-02-04T04:47:10;17.73;;;4.27;;
5961;SDS011;3007;50.770;0.250;2024-02-04T04:49:36;24.17;;;4.17;;
5961;SDS011;3007;50.770;0.250;2024-02-04T04:52:03;19.27;;;3.70;;
5961;SDS011;3007;50.770;0.250;2024-02-04T04:54:31;19.53;;;3.67;;
5961;SDS011;3007;50.770;0.250;2024-02-04T04:56:58;22.17;;;4.20;;
5961;SDS011;3007;50.770;0.250;2024-02-04T04:59:26;13.47;;;3.33;;
5961;SDS011;3007;50.770;0.250;2024-02-04T05:01:52;22.73;;;4.10;;
5961;SDS011;3007;50.770;0.250;2024-02-04T05:04:19;18.77;;;4.00;;
5961;SDS011;3007;50.770;0.250;2024-02-04T05:06:50;18.53;;;3.50;;
5961;SDS011;3007;50.770;0.250;2024-02-04T05:09:16;21.37;;;4.63;;
5961;SDS011;3007;50.770;0.250;2024-02-04T05:11:43;16.23;;;3.70;;
5961;SDS011;3007;50.770;0.250;2024-02-04T05:14:10;15.93;;;3.43;;
5961;SDS011;3007;50.770;0.250;2024-02-04T05:16:38;19.97;;;4.10;;
5961;SDS011;3007;50.770;0.250;2024-02-04T05:19:05;19.47;;;3.70;;
5961;SDS011;3007;50.770;0.250;2024-02-04T05:21:32;18.67;;;3.77;;
5961;SDS011;3007;50.770;0.250;2024-02-04T05:23:59;13.93;;;3.50;;
5961;SDS011;3007;50.770;0.250;2024-02-04T05:26:26;20.40;;;4.07;;
5961;SDS011;3007;50.770;0.250;2024-02-04T05:28:52;17.37;;;3.73;;
5961;SDS011;3007;50.770;0.250;2024-02-04T05:31:19;19.60;;;4.47;;
5961;SDS011;3007;50.770;0.250;2024-02-04T05:33:47;18.93;;;4.10;;
5961;SDS011;3007;50.770;0.250;2024-02-04T05:36:14;20.50;;;4.30;;
5961;SDS011;3007;50.770;0.250;2024-02-04T05:38:42;20.47;;;3.77;;
5961;SDS011;3007;50.770;0.250;2024-02-04T05:41:11;20.80;;;4.17;;
5961;SDS011;3007;50.770;0.250;2024-02-04T05:43:38;23.53;;;4.10;;
5961;SDS011;3007;50.770;0.250;2024-02-04T05:46:05;16.80;;;4.73;;
5961;SDS011;3007;50.770;0.250;2024-02-04T05:48:32;18.83;;;3.80;;
5961;SDS011;3007;50.770;0.250;2024-02-04T05:51:00;18.37;;;4.40;;
5961;SDS011;3007;50.770;0.250;2024-02-04T05:53:27;19.40;;;3.83;;
5961;SDS011;3007;50.770;0.250;2024-02-04T05:55:54;19.70;;;3.40;;
5961;SDS011;3007;50.770;0.250;2024-02-04T05:58:20;14.77;;;4.00;;
5961;SDS011;3007;50.770;0.250;2024-02-04T06:00:47;17.97;;;3.83;;
5961;SDS011;3007;50.770;0.250;2024-02-04T06:03:14;17.63;;;4.00;;
5961;SDS011;3007;50.770;0.250;2024-02-04T06:05:41;26.43;;;4.70;;
5961;SDS011;3007;50.770;0.250;2024-02-04T06:08:09;24.63;;;4.97;;
5961;SDS011;3007;50.770;0.250;2024-02-04T06:10:36;16.60;;;5.33;;
5961;SDS011;3007;50.770;0.250;2024-02-04T06:13:02;21.87;;;5.87;;
5961;SDS011;3007;50.770;0.250;2024-02-04T06:15:29;23.33;;;5.30;;
5961;SDS011;3007;50.770;0.250;2024-02-04T06:17:56;23.77;;;5.33;;
5961;SDS011;3007;50.770;0.250;2024-02-04T06:20:23;20.30;;;4.97;;
5961;SDS011;3007;50.770;0.250;2024-02-04T06:22:50;21.60;;;4.77;;
5961;SDS011;3007;50.770;0.250;2024-02-04T06:25:18;24.30;;;5.10;;
5961;SDS011;3007;50.770;0.250;2024-02-04T06:27:45;29.90;;;5.23;;
5961;SDS011;3007;50.770;0.250;2024-02-04T06:30:12;23.57;;;4.10;;
5961;SDS011;3007;50.770;0.250;2024-02-04T06:32:39;20.73;;;4.53;;
5961;SDS011;3007;50.770;0.250;2024-02-04T06:35:06;25.17;;;5.70;;
5961;SDS011;3007;50.770;0.250;2024-02-04T06:37:33;23.57;;;5.17;;
5961;SDS011;3007;50.770;0.250;2024-02-04T06:40:00;17.33;;;4.30;;
5961;SDS011;3007;50.770;0.250;2024-02-04T06:42:28;28.23;;;5.67;;
5961;SDS011;3007;50.770;0.250;2024-02-04T06:44:55;25.27;;;5.33;;
5961;SDS011;3007;50.770;0.250;2024-02-04T06:47:22;26.23;;;5.53;;
5961;SDS011;3007;50.770;0.250;2024-02-04T06:49:49;26.00;;;4.93;;
5961;SDS011;3007;50.770;0.250;2024-02-04T06:52:15;20.70;;;4.87;;
5961;SDS011;3007;50.770;0.250;2024-02-04T06:54:43;28.00;;;5.23;;
5961;SDS011;3007;50.770;0.250;2024-02-04T06:57:10;26.50;;;5.20;;
5961;SDS011;3007;50.770;0.250;2024-02-04T06:59:38;31.73;;;5.87;;
5961;SDS011;3007;50.770;0.250;2024-02-04T07:02:05;27.83;;;5.83;;
5961;SDS011;3007;50.770;0.250;2024-02-04T07:04:32;26.43;;;6.17;;
5961;SDS011;3007;50.770;0.250;2024-02-04T07:06:59;34.13;;;5.93;;
5961;SDS011;3007;50.770;0.250;2024-02-04T07:09:25;24.73;;;5.77;;
5961;SDS011;3007;50.770;0.250;2024-02-04T07:11:52;17.63;;;4.73;;
5961;SDS011;3007;50.770;0.250;2024-02-04T07:14:19;26.60;;;6.07;;
5961;SDS011;3007;50.770;0.250;2024-02-04T07:16:47;30.83;;;6.10;;
5961;SDS011;3007;50.770;0.250;2024-02-04T07:19:14;32.30;;;6.43;;
5961;SDS011;3007;50.770;0.250;2024-02-04T07:21:41;26.13;;;5.77;;
5961;SDS011;3007;50.770;0.250;2024-02-04T07:24:09;22.33;;;4.80;;
5961;SDS011;3007;50.770;0.250;2024-02-04T07:26:35;25.17;;;5.67;;
5961;SDS011;3007;50.770;0.250;2024-02-04T07:29:02;26.20;;;5.17;;
5961;SDS011;3007;50.770;0.250;2024-02-04T07:31:29;22.03;;;5.43;;
5961;SDS011;3007;50.770;0.250;2024-02-04T07:33:57;23.77;;;5.27;;
5961;SDS011;3007;50.770;0.250;2024-02-04T07:36:24;31.27;;;5.73;;
5961;SDS011;3007;50.770;0.250;2024-02-04T07:38:51;31.23;;;6.60;;
5961;SDS011;3007;50.770;0.250;2024-02-04T07:41:18;22.77;;;4.90;;
5961;SDS011;3007;50.770;0.250;2024-02-04T07:43:45;20.50;;;4.87;;
5961;SDS011;3007;50.770;0.250;2024-02-04T07:46:13;25.67;;;5.50;;
5961;SDS011;3007;50.770;0.250;2024-02-04T07:48:40;26.77;;;5.67;;
5961;SDS011;3007;50.770;0.250;2024-02-04T07:51:08;25.57;;;5.30;;
5961;SDS011;3007;50.770;0.250;2024-02-04T07:53:35;27.67;;;5.10;;
5961;SDS011;3007;50.770;0.250;2024-02-04T07:56:02;25.37;;;4.70;;
5961;SDS011;3007;50.770;0.250;2024-02-04T07:58:31;34.50;;;5.50;;
5961;SDS011;3007;50.770;0.250;2024-02-04T08:00:58;30.53;;;5.30;;
5961;SDS011;3007;50.770;0.250;2024-02-04T08:03:25;27.80;;;5.27;;
5961;SDS011;3007;50.770;0.250;2024-02-04T08:05:52;23.47;;;5.30;;
5961;SDS011;3007;50.770;0.250;2024-02-04T08:08:20;28.67;;;5.40;;
5961;SDS011;3007;50.770;0.250;2024-02-04T08:10:47;25.30;;;4.93;;
5961;SDS011;3007;50.770;0.250;2024-02-04T08:13:13;23.87;;;5.20;;
5961;SDS011;3007;50.770;0.250;2024-02-04T08:15:40;22.93;;;5.13;;
5961;SDS011;3007;50.770;0.250;2024-02-04T08:18:07;24.47;;;5.20;;
5961;SDS011;3007;50.770;0.250;2024-02-04T08:20:34;28.37;;;4.93;;
5961;SDS011;3007;50.770;0.250;2024-02-04T08:23:01;23.77;;;4.87;;
5961;SDS011;3007;50.770;0.250;2024-02-04T08:25:29;19.70;;;4.87;;
5961;SDS011;3007;50.770;0.250;2024-02-04T08:27:57;22.67;;;5.13;;
5961;SDS011;3007;50.770;0.250;2024-02-04T08:30:24;24.52;;;5.85;;
5961;SDS011;3007;50.770;0.250;2024-02-04T08:32:51;25.03;;;4.67;;
5961;SDS011;3007;50.770;0.250;2024-02-04T08:35:18;23.67;;;4.73;;
5961;SDS011;3007;50.770;0.250;2024-02-04T08:37:45;22.60;;;4.97;;
5961;SDS011;3007;50.770;0.250;2024-02-04T08:40:13;24.03;;;5.27;;
5961;SDS011;3007;50.770;0.250;2024-02-04T08:42:41;22.63;;;5.00;;
5961;SDS011;3007;50.770;0.250;2024-02-04T08:45:08;28.03;;;5.23;;
5961;SDS011;3007;50.770;0.250;2024-02-04T08:47:36;28.80;;;6.23;;
5961;SDS011;3007;50.770;0.250;2024-02-04T08:50:03;26.17;;;5.43;;
5961;SDS011;3007;50.770;0.250;2024-02-04T08:52:31;24.27;;;5.27;;
5961;SDS011;3007;50.770;0.250;2024-02-04T08:54:58;30.57;;;5.93;;
5961;SDS011;3007;50.770;0.250;2024-02-04T08:57:25;35.60;;;6.07;;
5961;SDS011;3007;50.770;0.250;2024-02-04T08:59:53;31.77;;;6.00;;
5961;SDS011;3007;50.770;0.250;2024-02-04T09:02:20;28.50;;;5.93;;
5961;SDS011;3007;50.770;0.250;2024-02-04T09:04:47;28.67;;;5.33;;
5961;SDS011;3007;50.770;0.250;2024-02-04T09:07:13;34.77;;;7.00;;
5961;SDS011;3007;50.770;0.250;2024-02-04T09:09:40;30.67;;;6.73;;
5961;SDS011;3007;50.770;0.250;2024-02-04T09:12:07;28.10;;;6.00;;
5961;SDS011;3007;50.770;0.250;2024-02-04T09:14:35;32.37;;;7.43;;
5961;SDS011;3007;50.770;0.250;2024-02-04T09:17:04;27.57;;;5.83;;
5961;SDS011;3007;50.770;0.250;2024-02-04T09:19:31;37.47;;;7.63;;
5961;SDS011;3007;50.770;0.250;2024-02-04T09:21:58;34.33;;;6.43;;
5961;SDS011;3007;50.770;0.250;2024-02-04T09:24:26;36.27;;;7.37;;
5961;SDS011;3007;50.770;0.250;2024-02-04T09:26:53;29.47;;;6.97;;
5961;SDS011;3007;50.770;0.250;2024-02-04T09:29:20;31.13;;;7.27;;
5961;SDS011;3007;50.770;0.250;2024-02-04T09:31:46;38.17;;;8.30;;
5961;SDS011;3007;50.770;0.250;2024-02-04T09:34:16;34.67;;;7.23;;
5961;SDS011;3007;50.770;0.250;2024-02-04T09:36:43;31.33;;;5.93;;
5961;SDS011;3007;50.770;0.250;2024-02-04T09:39:10;30.00;;;6.80;;
5961;SDS011;3007;50.770;0.250;2024-02-04T09:41:37;40.87;;;7.70;;
5961;SDS011;3007;50.770;0.250;2024-02-04T09:44:04;40.47;;;7.80;;
5961;SDS011;3007;50.770;0.250;2024-02-04T09:46:32;26.67;;;7.07;;
5961;SDS011;3007;50.770;0.250;2024-02-04T09:48:59;37.20;;;6.80;;
5961;SDS011;3007;50.770;0.250;2024-02-04T09:51:29;29.17;;;5.77;;
5961;SDS011;3007;50.770;0.250;2024-02-04T09:53:57;28.13;;;6.23;;
5961;SDS011;3007;50.770;0.250;2024-02-04T09:56:29;31.17;;;6.37;;
5961;SDS011;3007;50.770;0.250;2024-02-04T09:58:57;36.70;;;7.27;;
5961;SDS011;3007;50.770;0.250;2024-02-04T10:01:24;26.20;;;6.60;;
5961;SDS011;3007;50.770;0.250;2024-02-04T10:03:53;35.37;;;6.90;;
5961;SDS011;3007;50.770;0.250;2024-02-04T10:06:19;33.67;;;7.57;;
5961;SDS011;3007;50.770;0.250;2024-02-04T10:08:48;38.77;;;7.30;;
5961;SDS011;3007;50.770;0.250;2024-02-04T10:11:15;40.70;;;8.57;;
5961;SDS011;3007;50.770;0.250;2024-02-04T10:13:42;38.70;;;8.57;;
5961;SDS011;3007;50.770;0.250;2024-02-04T10:16:10;38.97;;;10.33;;
5961;SDS011;3007;50.770;0.250;2024-02-04T10:18:40;36.77;;;7.87;;
5961;SDS011;3007;50.770;0.250;2024-02-04T10:21:14;36.60;;;8.23;;
5961;SDS011;3007;50.770;0.250;2024-02-04T10:23:42;46.10;;;10.77;;
5961;SDS011;3007;50.770;0.250;2024-02-04T10:26:10;44.63;;;9.80;;
5961;SDS011;3007;50.770;0.250;2024-02-04T10:28:37;40.37;;;8.40;;
5961;SDS011;3007;50.770;0.250;2024-02-04T10:31:06;40.37;;;10.60;;
5961;SDS011;3007;50.770;0.250;2024-02-04T10:33:35;40.83;;;8.93;;
5961;SDS011;3007;50.770;0.250;2024-02-04T10:36:02;33.63;;;7.13;;
5961;SDS011;3007;50.770;0.250;2024-02-04T10:38:29;38.10;;;7.80;;
5961;SDS011;3007;50.770;0.250;2024-02-04T10:40:56;37.30;;;8.83;;
5961;SDS011;3007;50.770;0.250;2024-02-04T10:43:28;31.27;;;7.33;;
5961;SDS011;3007;50.770;0.250;2024-02-04T10:45:59;37.67;;;8.73;;
5961;SDS011;3007;50.770;0.250;2024-02-04T10:48:31;28.40;;;7.03;;
5961;SDS011;3007;50.770;0.250;2024-02-04T10:51:07;38.77;;;8.97;;
5961;SDS011;3007;50.770;0.250;2024-02-04T10:53:40;39.47;;;7.20;;
5961;SDS011;3007;50.770;0.250;2024-02-04T10:56:10;36.87;;;7.10;;
5961;SDS011;3007;50.770;0.250;2024-02-04T10:58:42;33.80;;;6.90;;
5961;SDS011;3007;50.770;0.250;2024-02-04T11:01:10;37.07;;;8.40;;
5961;SDS011;3007;50.770;0.250;2024-02-04T11:03:38;39.47;;;8.57;;
5961;SDS011;3007;50.770;0.250;2024-02-04T11:06:07;38.67;;;8.07;;
5961;SDS011;3007;50.770;0.250;2024-02-04T11:08:34;39.13;;;8.80;;
5961;SDS011;3007;50.770;0.250;2024-02-04T11:11:01;30.17;;;7.63;;
5961;SDS011;3007;50.770;0.250;2024-02-04T11:13:28;36.10;;;8.60;;
5961;SDS011;3007;50.770;0.250;2024-02-04T11:15:57;32.87;;;7.03;;
5961;SDS011;3007;50.770;0.250;2024-02-04T11:21:32;38.67;;;8.23;;
5961;SDS011;3007;50.770;0.250;2024-02-04T11:24:19;31.93;;;6.97;;
5961;SDS011;3007;50.770;0.250;2024-02-04T11:26:57;35.50;;;7.07;;
5961;SDS011;3007;50.770;0.250;2024-02-04T11:29:24;32.63;;;6.77;;
5961;SDS011;3007;50.770;0.250;2024-02-04T11:31:53;31.73;;;6.87;;
5961;SDS011;3007;50.770;0.250;2024-02-04T11:34:20;29.17;;;6.43;;
5961;SDS011;3007;50.770;0.250;2024-02-04T11:36:47;42.50;;;7.70;;
5961;SDS011;3007;50.770;0.250;2024-02-04T11:39:14;28.53;;;6.00;;
5961;SDS011;3007;50.770;0.250;2024-02-04T11:41:46;32.73;;;7.30;;
5961;SDS011;3007;50.770;0.250;2024-02-04T11:44:19;31.13;;;6.87;;
5961;SDS011;3007;50.770;0.250;2024-02-04T11:46:46;32.20;;;7.10;;
5961;SDS011;3007;50.770;0.250;2024-02-04T11:49:15;39.40;;;7.07;;
5961;SDS011;3007;50.770;0.250;2024-02-04T11:51:44;32.47;;;7.70;;
5961;SDS011;3007;50.770;0.250;2024-02-04T11:54:14;28.07;;;6.47;;
5961;SDS011;3007;50.770;0.250;2024-02-04T11:56:41;31.63;;;6.90;;
5961;SDS011;3007;50.770;0.250;2024-02-04T11:59:09;33.10;;;6.33;;
5961;SDS011;3007;50.770;0.250;2024-02-04T12:01:37;31.27;;;7.23;;
5961;SDS011;3007;50.770;0.250;2024-02-04T12:04:11;34.70;;;7.17;;
5961;SDS011;3007;50.770;0.250;2024-02-04T12:06:41;36.17;;;8.30;;
5961;SDS011;3007;50.770;0.250;2024-02-04T12:09:09;27.80;;;7.43;;
5961;SDS011;3007;50.770;0.250;2024-02-04T12:11:36;28.43;;;6.47;;
5961;SDS011;3007;50.770;0.250;2024-02-04T12:14:04;30.60;;;6.97;;
5961;SDS011;3007;50.770;0.250;2024-02-04T12:16:32;35.10;;;8.23;;
5961;SDS011;3007;50.770;0.250;2024-02-04T12:19:01;37.00;;;7.23;;
5961;SDS011;3007;50.770;0.250;2024-02-04T12:21:32;33.57;;;7.73;;
5961;SDS011;3007;50.770;0.250;2024-02-04T12:24:03;29.97;;;7.50;;
5961;SDS011;3007;50.770;0.250;2024-02-04T12:26:30;36.33;;;7.00;;
5961;SDS011;3007;50.770;0.250;2024-02-04T12:28:58;31.50;;;7.43;;
5961;SDS011;3007;50.770;0.250;2024-02-04T12:31:26;27.67;;;6.93;;
5961;SDS011;3007;50.770;0.250;2024-02-04T12:33:54;37.53;;;7.07;;
5961;SDS011;3007;50.770;0.250;2024-02-04T12:36:23;31.60;;;7.03;;
5961;SDS011;3007;50.770;0.250;2024-02-04T12:38:53;26.13;;;6.70;;
5961;SDS011;3007;50.770;0.250;2024-02-04T12:41:22;30.63;;;7.40;;
5961;SDS011;3007;50.770;0.250;2024-02-04T12:43:50;34.63;;;7.80;;
5961;SDS011;3007;50.770;0.250;2024-02-04T12:46:17;31.13;;;7.67;;
5961;SDS011;3007;50.770;0.250;2024-02-04T12:48:44;38.97;;;7.63;;
5961;SDS011;3007;50.770;0.250;2024-02-04T12:51:11;29.43;;;7.17;;
5961;SDS011;3007;50.770;0.250;2024-02-04T12:53:49;36.23;;;7.60;;
5961;SDS011;3007;50.770;0.250;2024-02-04T12:56:16;36.40;;;7.37;;
5961;SDS011;3007;50.770;0.250;2024-02-04T12:58:46;27.27;;;6.03;;
5961;SDS011;3007;50.770;0.250;2024-02-04T13:01:14;31.73;;;7.00;;
5961;SDS011;3007;50.770;0.250;2024-02-04T13:03:40;35.50;;;7.50;;
5961;SDS011;3007;50.770;0.250;2024-02-04T13:06:07;31.30;;;7.20;;
5961;SDS011;3007;50.770;0.250;2024-02-04T13:08:34;28.57;;;6.50;;
5961;SDS011;3007;50.770;0.250;2024-02-04T13:11:01;34.47;;;7.23;;
5961;SDS011;3007;50.770;0.250;2024-02-04T13:13:28;31.90;;;9.50;;
5961;SDS011;3007;50.770;0.250;2024-02-04T13:15:56;36.40;;;7.60;;
5961;SDS011;3007;50.770;0.250;2024-02-04T13:18:23;32.50;;;7.70;;
5961;SDS011;3007;50.770;0.250;2024-02-04T13:20:50;28.90;;;6.87;;
5961;SDS011;3007;50.770;0.250;2024-02-04T13:23:17;29.23;;;7.00;;
5961;SDS011;3007;50.770;0.250;2024-02-04T13:25:44;39.60;;;10.50;;
5961;SDS011;3007;50.770;0.250;2024-02-04T13:28:12;34.17;;;8.23;;
5961;SDS011;3007;50.770;0.250;2024-02-04T13:30:39;33.53;;;9.43;;
5961;SDS011;3007;50.770;0.250;2024-02-04T13:33:07;35.13;;;9.20;;
5961;SDS011;3007;50.770;0.250;2024-02-04T13:35:34;31.80;;;6.87;;
5961;SDS011;3007;50.770;0.250;2024-02-04T13:38:01;35.30;;;8.50;;
5961;SDS011;3007;50.770;0.250;2024-02-04T13:40:28;31.30;;;8.47;;
5961;SDS011;3007;50.770;0.250;2024-02-04T13:42:55;33.33;;;7.43;;
5961;SDS011;3007;50.770;0.250;2024-02-04T13:45:22;30.77;;;7.47;;
5961;SDS011;3007;50.770;0.250;2024-02-04T13:47:49;36.67;;;8.50;;
5961;SDS011;3007;50.770;0.250;2024-02-04T13:50:17;30.80;;;7.83;;
5961;SDS011;3007;50.770;0.250;2024-02-04T13:52:44;30.53;;;8.20;;
5961;SDS011;3007;50.770;0.250;2024-02-04T13:55:11;34.03;;;6.90;;
5961;SDS011;3007;50.770;0.250;2024-02-04T13:57:38;33.77;;;7.83;;
5961;SDS011;3007;50.770;0.250;2024-02-04T14:00:06;35.53;;;7.67;;
5961;SDS011;3007;50.770;0.250;2024-02-04T14:02:34;40.70;;;9.07;;
5961;SDS011;3007;50.770;0.250;2024-02-04T14:05:01;33.90;;;7.60;;
5961;SDS011;3007;50.770;0.250;2024-02-04T14:07:29;30.20;;;7.50;;
5961;SDS011;3007;50.770;0.250;2024-02-04T14:09:56;33.20;;;8.27;;
5961;SDS011;3007;50.770;0.250;2024-02-04T14:12:23;31.00;;;6.80;;
5961;SDS011;3007;50.770;0.250;2024-02-04T14:14:50;36.83;;;7.30;;
5961;SDS011;3007;50.770;0.250;2024-02-04T14:17:18;38.40;;;8.47;;
5961;SDS011;3007;50.770;0.250;2024-02-04T14:19:45;30.63;;;7.57;;
5961;SDS011;3007;50.770;0.250;2024-02-04T14:22:14;32.63;;;7.83;;
5961;SDS011;3007;50.770;0.250;2024-02-04T14:24:43;28.60;;;8.47;;
5961;SDS011;3007;50.770;0.250;2024-02-04T14:27:11;38.30;;;9.03;;
5961;SDS011;3007;50.770;0.250;2024-02-04T14:29:38;34.33;;;8.27;;
5961;SDS011;3007;50.770;0.250;2024-02-04T14:32:05;36.63;;;7.93;;
5961;SDS011;3007;50.770;0.250;2024-02-04T14:34:33;28.50;;;7.47;;
5961;SDS011;3007;50.770;0.250;2024-02-04T14:37:00;35.57;;;7.60;;
5961;SDS011;3007;50.770;0.250;2024-02-04T14:39:27;35.73;;;8.33;;
5961;SDS011;3007;50.770;0.250;2024-02-04T14:41:57;36.57;;;7.90;;
5961;SDS011;3007;50.770;0.250;2024-02-04T14:44:24;38.33;;;8.03;;
5961;SDS011;3007;50.770;0.250;2024-02-04T14:46:51;35.87;;;7.63;;
5961;SDS011;3007;50.770;0.250;2024-02-04T14:49:18;34.07;;;8.47;;
5961;SDS011;3007;50.770;0.250;2024-02-04T14:51:45;37.07;;;8.47;;
5961;SDS011;3007;50.770;0.250;2024-02-04T14:54:12;38.13;;;7.67;;
5961;SDS011;3007;50.770;0.250;2024-02-04T14:56:39;42.17;;;8.90;;
5961;SDS011;3007;50.770;0.250;2024-02-04T14:59:08;31.67;;;7.90;;
5961;SDS011;3007;50.770;0.250;2024-02-04T15:01:36;35.77;;;8.67;;
5961;SDS011;3007;50.770;0.250;2024-02-04T15:04:03;29.90;;;7.60;;
5961;SDS011;3007;50.770;0.250;2024-02-04T15:06:30;37.30;;;8.53;;